sensor_id;sensor_type;location;lat;lon;timestamp;P1;durP1;ratioP1;P2;durP2;ratioP2
48667;SDS011;34453;52.198;5.004;2023-12-29T00:01:13;14.27;;;3.83;;
48667;SDS011;34453;52.198;5.004;2023-12-29T00:03:39;11.13;;;2.03;;
48667;SDS011;34453;52.198;5.004;2023-12-29T00:06:05;11.18;;;2.78;;
48667;SDS011;34453;52.198;5.004;2023-12-29T00:08:30;17.92;;;3.13;;
48667;SDS011;34453;52.198;5.004;2023-12-29T00:10:56;15.00;;;3.40;;
48667;SDS011;34453;52.198;5.004;2023-12-29T00:13:22;15.73;;;2.55;;
48667;SDS011;34453;52.198;5.004;2023-12-29T00:15:52;11.30;;;2.17;;
48667;SDS011;34453;52.198;5.004;2023-12-29T00:18:18;18.02;;;2.35;;
48667;SDS011;34453;52.198;5.004;2023-12-29T00:20:43;20.85;;;3.13;;
48667;SDS011;34453;52.198;5.004;2023-12-29T00:23:10;14.07;;;2.72;;
48667;SDS011;34453;52.198;5.004;2023-12-29T00:25:36;11.68;;;2.58;;
48667;SDS011;34453;52.198;5.004;2023-12-29T00:28:02;10.45;;;1.95;;
48667;SDS011;34453;52.198;5.004;2023-12-29T00:30:28;19.90;;;3.28;;
48667;SDS011;34453;52.198;5.004;2023-12-29T00:32:57;9.85;;;2.60;;
48667;SDS011;34453;52.198;5.004;2023-12-29T00:35:23;10.88;;;2.60;;
48667;SDS011;34453;52.198;5.004;2023-12-29T00:37:50;13.77;;;2.22;;
48667;SDS011;34453;52.198;5.004;2023-12-29T00:40:16;14.52;;;2.53;;
48667;SDS011;34453;52.198;5.004;2023-12-29T00:42:41;17.80;;;3.92;;
48667;SDS011;34453;52.198;5.004;2023-12-29T00:45:07;14.98;;;3.22;;
48667;SDS011;34453;52.198;5.004;2023-12-29T00:47:33;18.52;;;1.88;;
48667;SDS011;34453;52.198;5.004;2023-12-29T00:49:59;11.30;;;2.80;;
48667;SDS011;34453;52.198;5.004;2023-12-29T00:52:25;19.30;;;4.05;;
48667;SDS011;34453;52.198;5.004;2023-12-29T00:54:51;14.73;;;1.95;;
48667;SDS011;34453;52.198;5.004;2023-12-29T00:57:16;7.40;;;1.90;;
48667;SDS011;34453;52.198;5.004;2023-12-29T00:59:42;8.80;;;3.88;;
48667;SDS011;34453;52.198;5.004;2023-12-29T01:02:09;12.85;;;2.55;;
48667;SDS011;34453;52.198;5.004;2023-12-29T01:04:36;13.35;;;3.55;;
48667;SDS011;34453;52.198;5.004;2023-12-29T01:07:04;15.20;;;2.45;;
48667;SDS011;34453;52.198;5.004;2023-12-29T01:09:29;12.88;;;3.08;;
48667;SDS011;34453;52.198;5.004;2023-12-29T01:11:55;18.75;;;3.47;;
48667;SDS011;34453;52.198;5.004;2023-12-29T01:14:20;10.38;;;2.10;;
48667;SDS011;34453;52.198;5.004;2023-12-29T01:16:45;9.20;;;1.77;;
48667;SDS011;34453;52.198;5.004;2023-12-29T01:19:11;9.32;;;1.95;;
48667;SDS011;34453;52.198;5.004;2023-12-29T01:21:39;14.18;;;2.00;;
48667;SDS011;34453;52.198;5.004;2023-12-29T01:24:05;14.80;;;3.25;;
48667;SDS011;34453;52.198;5.004;2023-12-29T01:26:36;19.77;;;2.92;;
48667;SDS011;34453;52.198;5.004;2023-12-29T01:29:03;10.13;;;1.90;;
48667;SDS011;34453;52.198;5.004;2023-12-29T01:31:29;15.25;;;2.13;;
48667;SDS011;34453;52.198;5.004;2023-12-29T01:33:55;10.98;;;2.40;;
48667;SDS011;34453;52.198;5.004;2023-12-29T01:36:21;12.10;;;2.50;;
48667;SDS011;34453;52.198;5.004;2023-12-29T01:38:46;10.15;;;2.08;;
48667;SDS011;34453;52.198;5.004;2023-12-29T01:41:12;10.75;;;2.65;;
48667;SDS011;34453;52.198;5.004;2023-12-29T01:44:02;11.80;;;2.22;;
48667;SDS011;34453;52.198;5.004;2023-12-29T01:46:28;17.45;;;4.32;;
48667;SDS011;34453;52.198;5.004;2023-12-29T01:48:55;18.63;;;2.50;;
48667;SDS011;34453;52.198;5.004;2023-12-29T01:51:24;16.08;;;2.35;;
48667;SDS011;34453;52.198;5.004;2023-12-29T01:53:55;11.40;;;2.50;;
48667;SDS011;34453;52.198;5.004;2023-12-29T01:56:22;13.02;;;2.42;;
48667;SDS011;34453;52.198;5.004;2023-12-29T01:58:49;14.75;;;1.95;;
48667;SDS011;34453;52.198;5.004;2023-12-29T02:01:16;16.10;;;3.53;;
48667;SDS011;34453;52.198;5.004;2023-12-29T02:03:43;14.00;;;2.30;;
48667;SDS011;34453;52.198;5.004;2023-12-29T02:06:09;6.50;;;1.75;;
48667;SDS011;34453;52.198;5.004;2023-12-29T02:08:36;11.48;;;3.75;;
48667;SDS011;34453;52.198;5.004;2023-12-29T02:11:02;10.70;;;3.70;;
48667;SDS011;34453;52.198;5.004;2023-12-29T02:13:29;16.38;;;2.78;;
48667;SDS011;34453;52.198;5.004;2023-12-29T02:15:54;15.77;;;2.97;;
48667;SDS011;34453;52.198;5.004;2023-12-29T02:18:30;12.90;;;2.75;;
48667;SDS011;34453;52.198;5.004;2023-12-29T02:20:56;15.50;;;2.70;;
48667;SDS011;34453;52.198;5.004;2023-12-29T02:23:22;12.68;;;2.75;;
48667;SDS011;34453;52.198;5.004;2023-12-29T02:25:47;10.30;;;2.70;;
48667;SDS011;34453;52.198;5.004;2023-12-29T02:28:26;9.57;;;2.28;;
48667;SDS011;34453;52.198;5.004;2023-12-29T02:31:01;15.63;;;4.13;;
48667;SDS011;34453;52.198;5.004;2023-12-29T02:33:36;16.00;;;3.63;;
48667;SDS011;34453;52.198;5.004;2023-12-29T02:36:04;15.75;;;2.83;;
48667;SDS011;34453;52.198;5.004;2023-12-29T02:38:31;21.38;;;2.97;;
48667;SDS011;34453;52.198;5.004;2023-12-29T02:40:57;13.45;;;3.10;;
48667;SDS011;34453;52.198;5.004;2023-12-29T02:43:23;15.38;;;2.50;;
48667;SDS011;34453;52.198;5.004;2023-12-29T02:45:48;9.65;;;2.42;;
48667;SDS011;34453;52.198;5.004;2023-12-29T02:48:14;11.10;;;2.38;;
48667;SDS011;34453;52.198;5.004;2023-12-29T02:50:39;8.00;;;2.13;;
48667;SDS011;34453;52.198;5.004;2023-12-29T02:53:05;7.80;;;2.17;;
48667;SDS011;34453;52.198;5.004;2023-12-29T02:55:30;9.98;;;3.30;;
48667;SDS011;34453;52.198;5.004;2023-12-29T02:57:56;16.73;;;2.72;;
48667;SDS011;34453;52.198;5.004;2023-12-29T03:00:21;12.00;;;2.65;;
48667;SDS011;34453;52.198;5.004;2023-12-29T03:02:47;12.88;;;3.63;;
48667;SDS011;34453;52.198;5.004;2023-12-29T03:05:13;12.35;;;2.88;;
48667;SDS011;34453;52.198;5.004;2023-12-29T03:07:39;17.08;;;4.38;;
48667;SDS011;34453;52.198;5.004;2023-12-29T03:10:06;15.98;;;3.63;;
48667;SDS011;34453;52.198;5.004;2023-12-29T03:12:32;8.50;;;2.75;;
48667;SDS011;34453;52.198;5.004;2023-12-29T03:14:57;32.60;;;5.32;;
48667;SDS011;34453;52.198;5.004;2023-12-29T03:17:23;15.05;;;3.55;;
48667;SDS011;34453;52.198;5.004;2023-12-29T03:19:48;17.73;;;3.60;;
48667;SDS011;34453;52.198;5.004;2023-12-29T03:22:14;23.67;;;5.63;;
48667;SDS011;34453;52.198;5.004;2023-12-29T03:24:40;25.40;;;5.20;;
48667;SDS011;34453;52.198;5.004;2023-12-29T03:27:06;27.48;;;5.40;;
48667;SDS011;34453;52.198;5.004;2023-12-29T03:29:36;36.20;;;6.57;;
48667;SDS011;34453;52.198;5.004;2023-12-29T03:32:02;20.75;;;4.53;;
48667;SDS011;34453;52.198;5.004;2023-12-29T03:34:28;18.88;;;3.60;;
48667;SDS011;34453;52.198;5.004;2023-12-29T03:36:53;32.85;;;6.47;;
48667;SDS011;34453;52.198;5.004;2023-12-29T03:39:19;26.42;;;4.60;;
48667;SDS011;34453;52.198;5.004;2023-12-29T03:41:44;31.73;;;4.45;;
48667;SDS011;34453;52.198;5.004;2023-12-29T03:44:10;16.98;;;3.72;;
48667;SDS011;34453;52.198;5.004;2023-12-29T03:46:35;38.53;;;4.40;;
48667;SDS011;34453;52.198;5.004;2023-12-29T03:49:01;30.60;;;4.28;;
48667;SDS011;34453;52.198;5.004;2023-12-29T03:51:27;21.08;;;4.63;;
48667;SDS011;34453;52.198;5.004;2023-12-29T03:53:53;27.35;;;4.40;;
48667;SDS011;34453;52.198;5.004;2023-12-29T03:56:19;29.27;;;4.38;;
48667;SDS011;34453;52.198;5.004;2023-12-29T03:58:44;31.55;;;5.25;;
48667;SDS011;34453;52.198;5.004;2023-12-29T04:01:11;23.67;;;5.07;;
48667;SDS011;34453;52.198;5.004;2023-12-29T04:03:37;26.67;;;6.95;;
48667;SDS011;34453;52.198;5.004;2023-12-29T04:06:03;32.33;;;5.82;;
48667;SDS011;34453;52.198;5.004;2023-12-29T04:08:29;35.90;;;5.55;;
48667;SDS011;34453;52.198;5.004;2023-12-29T04:10:55;30.38;;;5.75;;
48667;SDS011;34453;52.198;5.004;2023-12-29T04:13:20;35.95;;;6.03;;
48667;SDS011;34453;52.198;5.004;2023-12-29T04:15:46;29.88;;;5.97;;
48667;SDS011;34453;52.198;5.004;2023-12-29T04:18:11;29.00;;;5.50;;
48667;SDS011;34453;52.198;5.004;2023-12-29T04:20:37;37.55;;;5.40;;
48667;SDS011;34453;52.198;5.004;2023-12-29T04:23:03;24.73;;;6.20;;
48667;SDS011;34453;52.198;5.004;2023-12-29T04:25:31;22.45;;;3.50;;
48667;SDS011;34453;52.198;5.004;2023-12-29T04:27:57;36.17;;;4.43;;
48667;SDS011;34453;52.198;5.004;2023-12-29T04:30:23;24.48;;;4.88;;
48667;SDS011;34453;52.198;5.004;2023-12-29T04:32:48;27.13;;;4.32;;
48667;SDS011;34453;52.198;5.004;2023-12-29T04:35:13;40.45;;;6.07;;
48667;SDS011;34453;52.198;5.004;2023-12-29T04:37:40;36.50;;;5.80;;
48667;SDS011;34453;52.198;5.004;2023-12-29T04:40:10;35.90;;;4.95;;
48667;SDS011;34453;52.198;5.004;2023-12-29T04:42:36;30.10;;;4.03;;
48667;SDS011;34453;52.198;5.004;2023-12-29T04:45:02;38.38;;;5.72;;
48667;SDS011;34453;52.198;5.004;2023-12-29T04:47:30;31.45;;;6.95;;
48667;SDS011;34453;52.198;5.004;2023-12-29T04:49:55;27.35;;;4.75;;
48667;SDS011;34453;52.198;5.004;2023-12-29T04:52:21;37.83;;;4.93;;
48667;SDS011;34453;52.198;5.004;2023-12-29T04:54:47;50.80;;;9.25;;
48667;SDS011;34453;52.198;5.004;2023-12-29T04:57:12;43.65;;;6.78;;
48667;SDS011;34453;52.198;5.004;2023-12-29T04:59:37;36.10;;;4.43;;
48667;SDS011;34453;52.198;5.004;2023-12-29T05:02:03;27.48;;;5.00;;
48667;SDS011;34453;52.198;5.004;2023-12-29T05:04:28;38.53;;;5.15;;
48667;SDS011;34453;52.198;5.004;2023-12-29T05:06:54;38.15;;;5.75;;
48667;SDS011;34453;52.198;5.004;2023-12-29T05:09:19;29.90;;;5.68;;
48667;SDS011;34453;52.198;5.004;2023-12-29T05:11:45;35.80;;;5.93;;
48667;SDS011;34453;52.198;5.004;2023-12-29T05:14:11;34.13;;;5.07;;
48667;SDS011;34453;52.198;5.004;2023-12-29T05:16:36;44.58;;;6.00;;
48667;SDS011;34453;52.198;5.004;2023-12-29T05:19:02;35.47;;;5.70;;
48667;SDS011;34453;52.198;5.004;2023-12-29T05:21:27;27.75;;;5.30;;
48667;SDS011;34453;52.198;5.004;2023-12-29T05:23:53;36.70;;;5.35;;
48667;SDS011;34453;52.198;5.004;2023-12-29T05:26:18;34.60;;;5.90;;
48667;SDS011;34453;52.198;5.004;2023-12-29T05:28:44;28.73;;;5.60;;
48667;SDS011;34453;52.198;5.004;2023-12-29T05:31:09;28.45;;;4.95;;
48667;SDS011;34453;52.198;5.004;2023-12-29T05:33:35;38.38;;;5.35;;
48667;SDS011;34453;52.198;5.004;2023-12-29T05:36:07;34.28;;;6.05;;
48667;SDS011;34453;52.198;5.004;2023-12-29T05:38:34;36.50;;;6.60;;
48667;SDS011;34453;52.198;5.004;2023-12-29T05:41:03;32.30;;;6.57;;
48667;SDS011;34453;52.198;5.004;2023-12-29T05:43:33;23.20;;;4.47;;
48667;SDS011;34453;52.198;5.004;2023-12-29T05:45:59;27.52;;;4.15;;
48667;SDS011;34453;52.198;5.004;2023-12-29T05:48:25;41.13;;;7.22;;
48667;SDS011;34453;52.198;5.004;2023-12-29T05:50:51;32.28;;;5.85;;
48667;SDS011;34453;52.198;5.004;2023-12-29T05:53:17;30.75;;;5.32;;
48667;SDS011;34453;52.198;5.004;2023-12-29T05:55:43;37.08;;;5.70;;
48667;SDS011;34453;52.198;5.004;2023-12-29T05:58:09;34.45;;;6.07;;
48667;SDS011;34453;52.198;5.004;2023-12-29T06:00:35;27.40;;;4.15;;
48667;SDS011;34453;52.198;5.004;2023-12-29T06:03:01;29.63;;;7.03;;
48667;SDS011;34453;52.198;5.004;2023-12-29T06:05:29;39.92;;;6.28;;
48667;SDS011;34453;52.198;5.004;2023-12-29T06:07:54;33.33;;;5.88;;
48667;SDS011;34453;52.198;5.004;2023-12-29T06:10:20;35.10;;;6.25;;
48667;SDS011;34453;52.198;5.004;2023-12-29T06:12:45;28.58;;;5.13;;
48667;SDS011;34453;52.198;5.004;2023-12-29T06:15:12;23.15;;;5.72;;
48667;SDS011;34453;52.198;5.004;2023-12-29T06:17:38;18.90;;;3.20;;
48667;SDS011;34453;52.198;5.004;2023-12-29T06:20:05;22.83;;;4.38;;
48667;SDS011;34453;52.198;5.004;2023-12-29T06:22:32;19.80;;;3.83;;
48667;SDS011;34453;52.198;5.004;2023-12-29T06:24:57;29.77;;;5.65;;
48667;SDS011;34453;52.198;5.004;2023-12-29T06:27:24;16.52;;;2.78;;
48667;SDS011;34453;52.198;5.004;2023-12-29T06:29:50;29.27;;;4.43;;
48667;SDS011;34453;52.198;5.004;2023-12-29T06:32:16;32.28;;;4.35;;
48667;SDS011;34453;52.198;5.004;2023-12-29T06:34:41;30.20;;;6.10;;
48667;SDS011;34453;52.198;5.004;2023-12-29T06:37:07;10.23;;;3.47;;
48667;SDS011;34453;52.198;5.004;2023-12-29T06:39:32;27.00;;;4.70;;
48667;SDS011;34453;52.198;5.004;2023-12-29T06:41:58;20.05;;;3.83;;
48667;SDS011;34453;52.198;5.004;2023-12-29T06:44:23;18.67;;;3.67;;
48667;SDS011;34453;52.198;5.004;2023-12-29T06:46:48;30.45;;;2.97;;
48667;SDS011;34453;52.198;5.004;2023-12-29T06:49:14;19.95;;;4.53;;
48667;SDS011;34453;52.198;5.004;2023-12-29T06:51:39;21.23;;;3.13;;
48667;SDS011;34453;52.198;5.004;2023-12-29T06:54:06;16.02;;;4.68;;
48667;SDS011;34453;52.198;5.004;2023-12-29T06:56:32;28.15;;;4.63;;
48667;SDS011;34453;52.198;5.004;2023-12-29T06:58:57;22.48;;;3.10;;
48667;SDS011;34453;52.198;5.004;2023-12-29T07:01:23;26.73;;;4.20;;
48667;SDS011;34453;52.198;5.004;2023-12-29T07:03:49;14.65;;;3.05;;
48667;SDS011;34453;52.198;5.004;2023-12-29T07:06:15;11.60;;;2.58;;
48667;SDS011;34453;52.198;5.004;2023-12-29T07:08:40;11.98;;;2.35;;
48667;SDS011;34453;52.198;5.004;2023-12-29T07:11:09;7.72;;;1.50;;
48667;SDS011;34453;52.198;5.004;2023-12-29T07:13:36;17.52;;;3.10;;
48667;SDS011;34453;52.198;5.004;2023-12-29T07:16:02;19.90;;;4.10;;
48667;SDS011;34453;52.198;5.004;2023-12-29T07:18:27;19.65;;;4.80;;
48667;SDS011;34453;52.198;5.004;2023-12-29T07:20:53;14.15;;;3.05;;
48667;SDS011;34453;52.198;5.004;2023-12-29T07:23:18;7.95;;;3.72;;
48667;SDS011;34453;52.198;5.004;2023-12-29T07:25:44;9.82;;;2.70;;
48667;SDS011;34453;52.198;5.004;2023-12-29T07:28:09;11.85;;;3.20;;
48667;SDS011;34453;52.198;5.004;2023-12-29T07:30:35;11.75;;;2.67;;
48667;SDS011;34453;52.198;5.004;2023-12-29T07:33:00;7.45;;;2.08;;
48667;SDS011;34453;52.198;5.004;2023-12-29T07:35:27;6.88;;;2.20;;
48667;SDS011;34453;52.198;5.004;2023-12-29T07:37:52;13.75;;;2.35;;
48667;SDS011;34453;52.198;5.004;2023-12-29T07:40:18;6.85;;;2.88;;
48667;SDS011;34453;52.198;5.004;2023-12-29T07:42:44;13.32;;;2.15;;
48667;SDS011;34453;52.198;5.004;2023-12-29T07:45:11;13.10;;;2.22;;
48667;SDS011;34453;52.198;5.004;2023-12-29T07:47:37;14.00;;;2.80;;
48667;SDS011;34453;52.198;5.004;2023-12-29T07:50:03;8.98;;;2.08;;
48667;SDS011;34453;52.198;5.004;2023-12-29T07:52:30;11.63;;;2.88;;
48667;SDS011;34453;52.198;5.004;2023-12-29T07:54:56;10.05;;;2.25;;
48667;SDS011;34453;52.198;5.004;2023-12-29T07:57:21;10.65;;;2.28;;
48667;SDS011;34453;52.198;5.004;2023-12-29T07:59:46;12.40;;;2.20;;
48667;SDS011;34453;52.198;5.004;2023-12-29T08:02:12;9.55;;;2.72;;
48667;SDS011;34453;52.198;5.004;2023-12-29T08:04:37;9.18;;;2.47;;
48667;SDS011;34453;52.198;5.004;2023-12-29T08:07:03;9.82;;;2.45;;
48667;SDS011;34453;52.198;5.004;2023-12-29T08:09:29;15.68;;;2.88;;
48667;SDS011;34453;52.198;5.004;2023-12-29T08:11:55;14.02;;;2.83;;
48667;SDS011;34453;52.198;5.004;2023-12-29T08:14:21;10.52;;;2.60;;
48667;SDS011;34453;52.198;5.004;2023-12-29T08:16:47;11.80;;;4.00;;
48667;SDS011;34453;52.198;5.004;2023-12-29T08:19:12;12.68;;;4.65;;
48667;SDS011;34453;52.198;5.004;2023-12-29T08:21:40;20.25;;;3.05;;
48667;SDS011;34453;52.198;5.004;2023-12-29T08:24:05;14.25;;;3.20;;
48667;SDS011;34453;52.198;5.004;2023-12-29T08:26:31;11.95;;;2.65;;
48667;SDS011;34453;52.198;5.004;2023-12-29T08:28:56;13.38;;;3.70;;
48667;SDS011;34453;52.198;5.004;2023-12-29T08:31:22;7.13;;;2.20;;
48667;SDS011;34453;52.198;5.004;2023-12-29T08:33:48;4.22;;;2.30;;
48667;SDS011;34453;52.198;5.004;2023-12-29T08:36:13;14.50;;;3.72;;
48667;SDS011;34453;52.198;5.004;2023-12-29T08:38:39;7.55;;;2.00;;
48667;SDS011;34453;52.198;5.004;2023-12-29T08:41:04;12.38;;;2.03;;
48667;SDS011;34453;52.198;5.004;2023-12-29T08:43:30;8.85;;;2.10;;
48667;SDS011;34453;52.198;5.004;2023-12-29T08:45:56;9.90;;;2.50;;
48667;SDS011;34453;52.198;5.004;2023-12-29T08:48:21;2.65;;;1.45;;
48667;SDS011;34453;52.198;5.004;2023-12-29T08:50:47;8.40;;;3.08;;
48667;SDS011;34453;52.198;5.004;2023-12-29T08:53:14;11.18;;;2.45;;
48667;SDS011;34453;52.198;5.004;2023-12-29T08:55:40;9.82;;;2.70;;
48667;SDS011;34453;52.198;5.004;2023-12-29T08:58:06;11.25;;;2.40;;
48667;SDS011;34453;52.198;5.004;2023-12-29T09:00:31;7.10;;;2.30;;
48667;SDS011;34453;52.198;5.004;2023-12-29T09:02:57;8.18;;;2.17;;
48667;SDS011;34453;52.198;5.004;2023-12-29T09:05:22;10.70;;;2.40;;
48667;SDS011;34453;52.198;5.004;2023-12-29T09:07:51;6.38;;;2.97;;
48667;SDS011;34453;52.198;5.004;2023-12-29T09:10:16;5.22;;;1.60;;
48667;SDS011;34453;52.198;5.004;2023-12-29T09:12:42;6.38;;;2.03;;
48667;SDS011;34453;52.198;5.004;2023-12-29T09:15:09;10.90;;;2.38;;
48667;SDS011;34453;52.198;5.004;2023-12-29T09:17:34;7.63;;;2.20;;
48667;SDS011;34453;52.198;5.004;2023-12-29T09:20:00;4.82;;;1.75;;
48667;SDS011;34453;52.198;5.004;2023-12-29T09:22:27;21.52;;;3.78;;
48667;SDS011;34453;52.198;5.004;2023-12-29T09:24:53;10.18;;;2.38;;
48667;SDS011;34453;52.198;5.004;2023-12-29T09:27:20;11.85;;;3.58;;
48667;SDS011;34453;52.198;5.004;2023-12-29T09:29:46;7.30;;;2.05;;
48667;SDS011;34453;52.198;5.004;2023-12-29T09:32:11;9.77;;;1.70;;
48667;SDS011;34453;52.198;5.004;2023-12-29T09:34:37;10.88;;;3.13;;
48667;SDS011;34453;52.198;5.004;2023-12-29T09:37:02;9.48;;;2.35;;
48667;SDS011;34453;52.198;5.004;2023-12-29T09:39:28;5.20;;;2.10;;
48667;SDS011;34453;52.198;5.004;2023-12-29T09:41:54;11.02;;;2.67;;
48667;SDS011;34453;52.198;5.004;2023-12-29T09:44:23;14.18;;;2.95;;
48667;SDS011;34453;52.198;5.004;2023-12-29T09:46:53;5.22;;;1.83;;
48667;SDS011;34453;52.198;5.004;2023-12-29T09:49:20;5.35;;;1.65;;
48667;SDS011;34453;52.198;5.004;2023-12-29T09:51:46;12.15;;;2.38;;
48667;SDS011;34453;52.198;5.004;2023-12-29T09:54:13;7.57;;;1.65;;
48667;SDS011;34453;52.198;5.004;2023-12-29T09:56:40;7.43;;;1.60;;
48667;SDS011;34453;52.198;5.004;2023-12-29T09:59:08;11.52;;;1.58;;
48667;SDS011;34453;52.198;5.004;2023-12-29T10:01:36;8.10;;;1.63;;
48667;SDS011;34453;52.198;5.004;2023-12-29T10:04:02;8.90;;;2.13;;
48667;SDS011;34453;52.198;5.004;2023-12-29T10:06:29;12.30;;;1.88;;
48667;SDS011;34453;52.198;5.004;2023-12-29T10:08:59;11.38;;;2.80;;
48667;SDS011;34453;52.198;5.004;2023-12-29T10:11:29;15.00;;;3.00;;
48667;SDS011;34453;52.198;5.004;2023-12-29T10:13:59;9.88;;;3.13;;
48667;SDS011;34453;52.198;5.004;2023-12-29T10:16:41;14.07;;;2.90;;
48667;SDS011;34453;52.198;5.004;2023-12-29T10:19:12;16.60;;;2.10;;
48667;SDS011;34453;52.198;5.004;2023-12-29T10:24:36;10.68;;;2.08;;
48667;SDS011;34453;52.198;5.004;2023-12-29T10:27:02;8.77;;;1.67;;
48667;SDS011;34453;52.198;5.004;2023-12-29T10:29:28;7.05;;;1.70;;
48667;SDS011;34453;52.198;5.004;2023-12-29T10:31:54;4.45;;;1.85;;
48667;SDS011;34453;52.198;5.004;2023-12-29T10:34:20;12.15;;;2.22;;
48667;SDS011;34453;52.198;5.004;2023-12-29T10:36:56;10.63;;;1.52;;
48667;SDS011;34453;52.198;5.004;2023-12-29T10:39:23;6.38;;;1.50;;
48667;SDS011;34453;52.198;5.004;2023-12-29T10:41:49;14.10;;;2.05;;
48667;SDS011;34453;52.198;5.004;2023-12-29T10:44:15;13.65;;;3.03;;
48667;SDS011;34453;52.198;5.004;2023-12-29T10:46:41;9.50;;;2.63;;
48667;SDS011;34453;52.198;5.004;2023-12-29T10:49:10;8.52;;;2.65;;
48667;SDS011;34453;52.198;5.004;2023-12-29T10:51:37;14.70;;;2.63;;
48667;SDS011;34453;52.198;5.004;2023-12-29T10:54:03;11.30;;;3.30;;
48667;SDS011;34453;52.198;5.004;2023-12-29T10:56:30;13.40;;;2.78;;
48667;SDS011;34453;52.198;5.004;2023-12-29T10:59:02;19.25;;;3.25;;
48667;SDS011;34453;52.198;5.004;2023-12-29T11:01:30;16.60;;;2.30;;
48667;SDS011;34453;52.198;5.004;2023-12-29T11:04:00;27.52;;;2.30;;
48667;SDS011;34453;52.198;5.004;2023-12-29T11:06:30;15.98;;;3.25;;
48667;SDS011;34453;52.198;5.004;2023-12-29T11:09:05;21.10;;;3.42;;
48667;SDS011;34453;52.198;5.004;2023-12-29T11:11:30;25.58;;;3.88;;
48667;SDS011;34453;52.198;5.004;2023-12-29T11:13:58;19.40;;;2.75;;
48667;SDS011;34453;52.198;5.004;2023-12-29T11:16:24;18.83;;;3.05;;
48667;SDS011;34453;52.198;5.004;2023-12-29T11:18:51;27.45;;;3.15;;
48667;SDS011;34453;52.198;5.004;2023-12-29T11:21:17;13.60;;;2.40;;
48667;SDS011;34453;52.198;5.004;2023-12-29T11:23:46;25.75;;;3.40;;
48667;SDS011;34453;52.198;5.004;2023-12-29T11:26:12;22.13;;;2.95;;
48667;SDS011;34453;52.198;5.004;2023-12-29T11:28:38;35.60;;;4.75;;
48667;SDS011;34453;52.198;5.004;2023-12-29T11:31:04;23.33;;;3.40;;
48667;SDS011;34453;52.198;5.004;2023-12-29T11:33:31;20.33;;;4.25;;
48667;SDS011;34453;52.198;5.004;2023-12-29T11:36:12;23.45;;;2.85;;
48667;SDS011;34453;52.198;5.004;2023-12-29T11:38:49;17.38;;;3.08;;
48667;SDS011;34453;52.198;5.004;2023-12-29T11:41:31;22.13;;;3.47;;
48667;SDS011;34453;52.198;5.004;2023-12-29T11:44:03;16.13;;;3.08;;
48667;SDS011;34453;52.198;5.004;2023-12-29T11:46:46;23.67;;;3.50;;
48667;SDS011;34453;52.198;5.004;2023-12-29T11:49:12;23.85;;;2.53;;
48667;SDS011;34453;52.198;5.004;2023-12-29T11:54:10;19.52;;;2.38;;
48667;SDS011;34453;52.198;5.004;2023-12-29T11:56:36;14.32;;;3.53;;
48667;SDS011;34453;52.198;5.004;2023-12-29T11:59:14;29.92;;;4.05;;
48667;SDS011;34453;52.198;5.004;2023-12-29T12:01:46;25.00;;;6.50;;
48667;SDS011;34453;52.198;5.004;2023-12-29T12:09:46;14.70;;;3.70;;
48667;SDS011;34453;52.198;5.004;2023-12-29T12:12:14;10.82;;;4.43;;
48667;SDS011;34453;52.198;5.004;2023-12-29T12:14:59;21.15;;;4.10;;
48667;SDS011;34453;52.198;5.004;2023-12-29T12:20:14;20.65;;;3.05;;
48667;SDS011;34453;52.198;5.004;2023-12-29T12:22:39;17.52;;;2.30;;
48667;SDS011;34453;52.198;5.004;2023-12-29T12:25:06;16.85;;;2.55;;
48667;SDS011;34453;52.198;5.004;2023-12-29T12:27:34;8.52;;;2.00;;
48667;SDS011;34453;52.198;5.004;2023-12-29T12:30:03;16.33;;;2.10;;
48667;SDS011;34453;52.198;5.004;2023-12-29T12:32:29;16.25;;;2.53;;
48667;SDS011;34453;52.198;5.004;2023-12-29T12:34:55;18.63;;;2.22;;
48667;SDS011;34453;52.198;5.004;2023-12-29T12:37:22;10.20;;;2.10;;
48667;SDS011;34453;52.198;5.004;2023-12-29T12:39:48;14.30;;;2.63;;
48667;SDS011;34453;52.198;5.004;2023-12-29T12:42:15;15.70;;;2.10;;
48667;SDS011;34453;52.198;5.004;2023-12-29T12:45:03;13.07;;;2.85;;
48667;SDS011;34453;52.198;5.004;2023-12-29T12:47:36;14.27;;;2.30;;
48667;SDS011;34453;52.198;5.004;2023-12-29T12:50:07;20.92;;;3.38;;
48667;SDS011;34453;52.198;5.004;2023-12-29T12:52:35;15.25;;;1.83;;
48667;SDS011;34453;52.198;5.004;2023-12-29T12:55:01;15.63;;;2.97;;
48667;SDS011;34453;52.198;5.004;2023-12-29T12:57:27;15.63;;;2.13;;
48667;SDS011;34453;52.198;5.004;2023-12-29T12:59:54;18.85;;;3.67;;
48667;SDS011;34453;52.198;5.004;2023-12-29T13:02:21;19.92;;;3.40;;
48667;SDS011;34453;52.198;5.004;2023-12-29T13:04:47;13.65;;;3.03;;
48667;SDS011;34453;52.198;5.004;2023-12-29T13:07:17;15.40;;;2.15;;
48667;SDS011;34453;52.198;5.004;2023-12-29T13:09:43;9.73;;;2.13;;
48667;SDS011;34453;52.198;5.004;2023-12-29T13:12:13;13.18;;;2.72;;
48667;SDS011;34453;52.198;5.004;2023-12-29T13:14:41;10.75;;;1.92;;
48667;SDS011;34453;52.198;5.004;2023-12-29T13:17:10;13.05;;;2.22;;
48667;SDS011;34453;52.198;5.004;2023-12-29T13:19:40;14.77;;;2.75;;
48667;SDS011;34453;52.198;5.004;2023-12-29T13:22:09;13.15;;;1.90;;
48667;SDS011;34453;52.198;5.004;2023-12-29T13:24:45;9.85;;;1.60;;
48667;SDS011;34453;52.198;5.004;2023-12-29T13:27:11;7.13;;;1.70;;
48667;SDS011;34453;52.198;5.004;2023-12-29T13:29:37;20.63;;;2.95;;
48667;SDS011;34453;52.198;5.004;2023-12-29T13:42:59;6.47;;;1.73;;
48667;SDS011;34453;52.198;5.004;2023-12-29T13:45:27;9.88;;;1.60;;
48667;SDS011;34453;52.198;5.004;2023-12-29T13:47:53;20.35;;;2.80;;
48667;SDS011;34453;52.198;5.004;2023-12-29T13:50:20;15.95;;;2.55;;
48667;SDS011;34453;52.198;5.004;2023-12-29T13:52:49;12.73;;;2.72;;
48667;SDS011;34453;52.198;5.004;2023-12-29T13:55:21;11.65;;;3.88;;
48667;SDS011;34453;52.198;5.004;2023-12-29T13:57:50;11.18;;;2.15;;
48667;SDS011;34453;52.198;5.004;2023-12-29T14:00:26;13.23;;;2.13;;
48667;SDS011;34453;52.198;5.004;2023-12-29T14:05:24;17.27;;;2.85;;
48667;SDS011;34453;52.198;5.004;2023-12-29T14:07:59;10.90;;;3.28;;
48667;SDS011;34453;52.198;5.004;2023-12-29T14:10:34;22.90;;;4.18;;
48667;SDS011;34453;52.198;5.004;2023-12-29T14:13:06;19.35;;;2.45;;
48667;SDS011;34453;52.198;5.004;2023-12-29T14:15:40;9.85;;;1.63;;
48667;SDS011;34453;52.198;5.004;2023-12-29T14:20:54;12.95;;;1.77;;
48667;SDS011;34453;52.198;5.004;2023-12-29T14:23:20;10.23;;;1.60;;
48667;SDS011;34453;52.198;5.004;2023-12-29T14:25:45;8.98;;;1.63;;
48667;SDS011;34453;52.198;5.004;2023-12-29T14:28:16;12.38;;;2.70;;
48667;SDS011;34453;52.198;5.004;2023-12-29T14:30:41;18.48;;;3.38;;
48667;SDS011;34453;52.198;5.004;2023-12-29T14:33:07;15.73;;;2.30;;
48667;SDS011;34453;52.198;5.004;2023-12-29T14:35:33;20.27;;;2.78;;
48667;SDS011;34453;52.198;5.004;2023-12-29T14:37:59;14.15;;;2.17;;
48667;SDS011;34453;52.198;5.004;2023-12-29T14:40:24;17.85;;;2.08;;
48667;SDS011;34453;52.198;5.004;2023-12-29T14:42:50;11.18;;;2.28;;
48667;SDS011;34453;52.198;5.004;2023-12-29T14:45:15;20.63;;;2.72;;
48667;SDS011;34453;52.198;5.004;2023-12-29T14:47:41;17.00;;;2.30;;
48667;SDS011;34453;52.198;5.004;2023-12-29T14:50:07;11.15;;;2.38;;
48667;SDS011;34453;52.198;5.004;2023-12-29T14:52:33;8.90;;;2.17;;
48667;SDS011;34453;52.198;5.004;2023-12-29T14:54:59;11.95;;;2.05;;
48667;SDS011;34453;52.198;5.004;2023-12-29T14:57:24;23.60;;;3.30;;
48667;SDS011;34453;52.198;5.004;2023-12-29T14:59:50;22.55;;;3.25;;
48667;SDS011;34453;52.198;5.004;2023-12-29T15:02:15;8.13;;;1.65;;
48667;SDS011;34453;52.198;5.004;2023-12-29T15:04:41;19.83;;;2.55;;